Tiempo atmosférico en la estación meteorológica de Jabaloyas, Teruel (1430 m.)



Fecha
DESCASC
Temp. máxima en grados centígrados (hora)
DESCASC
Temp. mínima en grados centígrados (hora)
DESCASC
Temp. media en grados centígrados
DESCASC
Racha de viento máxima en m/sg (hora)
DESCASC
Velocidad máxima media en intervalos de 10 minutos(hora)
DESCASC
Precipitaciones diarias en mm
DESCASC
Precipitaciones de 00:00 a 06:00 en mm
DESCASC
Precipitaciones de 06:00 a 12:00 en mm
DESCASC
Precipitaciones de 12:00 a 18:00 en mm
DESCASC
Precipitaciones de 18:00 a 24:00 en mm
DESCASC
02-04-2020 6.9 (15:30) 0.7 (06:20) 3.8 8.61 (20:00) 5.28 (17:50) 0.8 0 0 0.2 0.6
01-04-2020 10 (16:50) 2.6 (07:20) 6.3 9.17 (15:00) 5.28 (17:30) 9.4 7.4 1 1 0
31-03-2020 4.3 (17:40) -3.4 (-00:0) 0.5 8.33 (12:50) 4.44 (12:50) 19.6 5.6 12.4 1 0.6
30-03-2020 3.2 (00:00) -3.5 (22:10) -0.1 5.28 (21:00) 3.89 (07:20) 5 0 1.4 0.6 3
29-03-2020 12.1 (16:20) 2.9 (00:00) 7.5 6.67 (13:00) 4.44 (22:20) 0 0 0 0 0
28-03-2020 7.2 (14:50) -1.1 (-00:0) 3 7.5 (11:30) 3.33 (10:30) 0 0 0 0 0
27-03-2020 3.4 (15:10) -2.9 (-00:0) 0.3 7.78 (14:50) 5 (14:50) 0 0 0 0 0
26-03-2020 5.4 (16:50) -2.1 (-00:0) 1.7 16.67 (11:00) 11.11 (13:40) 0 0 0 0 0
25-03-2020 6.6 (17:00) 0 (00:00) 3.3 8.33 (15:30) 4.72 (15:30) 2 0 0.2 1.8 0
24-03-2020 5.7 (14:50) 1.2 (00:00) 3.4 11.39 (12:20) 7.5 (12:20) 0 0 0 0 0
23-03-2020 6.8 (14:00) 2.8 (00:00) 4.8 8.61 (21:30) 4.72 (21:20) 6.6 0.2 1.6 4.6 0.2
22-03-2020 6.1 (13:00) 2.2 (02:30) 4.1 5 (00:30) 3.06 (00:30) 9.2 3.2 0.4 4 1.6
21-03-2020 5.6 (17:40) 2.1 (00:00) 3.8 8.61 (01:00) 5.83 (01:00) 1 0 0 0 1
20-03-2020 8.4 (14:40) 2.2 (00:00) 5.3 10.56 (03:50) 7.78 (03:20) 0 0 0 0 0
19-03-2020 10.3 (14:50) 3.1 (00:00) 6.7 9.17 (23:20) 6.94 (23:30) 0 0 0 0 0
18-03-2020 10.4 (16:00) 3.5 (00:00) 6.9 6.11 (16:30) 3.33 (12:50) 0.2 0.2 0 0 0
17-03-2020 6.4 (16:10) 1.9 (00:00) 4.2 11.39 (16:00) 5.28 (16:10) 27.6 14.6 9 4 0
16-03-2020 5.1 (00:00) -0.1 (00:00) 2.5 13.06 (08:30) 7.78 (08:10) 53.6 12 21.2 12.2 8.2
15-03-2020 12.3 (15:20) 4.9 (00:00) 8.6 12.22 (20:00) 6.67 (19:30) 13.4 0 0 0 13.4
14-03-2020 14.5 (13:40) 5.1 (00:00) 9.8 6.39 (13:50) 3.89 (13:50) 0 0 0 0 0
13-03-2020 14.8 (00:00) 6.2 (23:50) 10.5 12.5 (15:00) 6.67 (14:30) 0 0 0 0 0
12-03-2020 21.3 (14:00) 12.5 (00:00) 16.9 9.17 (14:50) 6.39 (03:40) 0 0 0 0 0
11-03-2020 21.8 (15:30) 8.8 (00:00) 15.3 13.61 (00:40) 9.17 (00:20) 0 0 0 0 0
10-03-2020 18.9 (16:40) 3.5 (00:00) 11.2 14.17 (02:00) 9.72 (07:30) 0 0 0 0 0
09-03-2020 10.1 (15:20) 2.6 (00:00) 6.4 15 (14:50) 10.56 (14:50) 0 0 0 0 0
08-03-2020 14 (14:20) 0 (00:00) 7 14.17 (23:00) 8.89 (23:20) 0 0 0 0 0
07-03-2020 7.7 (15:50) -1.2 (-00:0) 3.2 21.11 (11:20) 14.17 (12:10) 0 0 0 0 0
06-03-2020 4.3 (14:00) -0.4 (00:00) 2 22.78 (22:50) 15 (16:10) 0 0 0 0 0
05-03-2020 9 (13:10) 2.7 (00:00) 5.9 23.06 (18:00) 15 (16:30) 0.2 0 0 0 0.2

Gráficas

Temp. máximas Temp. mínimas Temp. medias Precipitaciones Rachas de viento máximas Velocidades máximas media en intervalos de 10 minutos

Datos horarios

Fecha y hora oficial Temperatura (ºC) Velocidad del viento (km/h) Dirección del viento Racha (km/h) Dirección de racha Precipitación (mm) Presión (hPa) Tendencia (hPa) Humedad (%)
2020-04-03 23:00:00 4.8 7 Sudeste 13 Sur 0 -- -- 84
2020-04-03 22:00:00 4.8 6 Sur 10 Oeste 0 -- -- 72
2020-04-03 21:00:00 6.2 7 Oeste 9 Oeste 0 -- -- 56
2020-04-03 20:00:00 7.7 0 Calma 10 Nordeste 0 -- -- 57
2020-04-03 19:00:00 9.5 4 Este 10 Este 0 -- -- 56
2020-04-03 18:00:00 9.5 5 Nordeste 18 Este 0 -- -- 55
2020-04-03 17:00:00 10.2 5 Este 23 Este 0 -- -- 55
2020-04-03 16:00:00 10.4 11 Sudeste 22 Este 0 -- -- 56
2020-04-03 15:00:00 10 9 Sudeste 22 Sudeste 0 -- -- 50
2020-04-03 14:00:00 8.6 6 Norte 14 Noroeste 0 -- -- 49
2020-04-03 13:00:00 7.5 7 Norte 19 Oeste 0 -- -- 55
2020-04-03 12:00:00 6.1 7 Nordeste 14 Nordeste 0 -- -- 63
2020-04-03 11:00:00 3.8 3 Norte 8 Nordeste 0 -- -- 70
2020-04-03 10:00:00 1.8 3 Norte 10 Norte 0 -- -- 84
2020-04-03 09:00:00 0.5 8 Noroeste 19 Oeste 0 -- -- 86
2020-04-03 08:00:00 -0.5 13 Oeste 19 Oeste 0 -- -- 88
2020-04-03 07:00:00 -0.3 15 Oeste 22 Oeste 0 -- -- 93
2020-04-03 06:00:00 0.3 15 Oeste 23 Oeste 0 -- -- 94
2020-04-03 05:00:00 0.7 10 Noroeste 22 Noroeste 0 -- -- 93
2020-04-03 04:00:00 1 13 Noroeste 21 Noroeste 0 -- -- 93
2020-04-03 03:00:00 0.9 14 Noroeste 26 Noroeste 0 -- -- 91
2020-04-03 02:00:00 1.4 16 Noroeste 27 Noroeste 0.2 -- -- 87
2020-04-03 01:00:00 2.5 17 Noroeste 29 Noroeste 0 -- -- 90
2020-04-03 00:00:00 3.1 13 Noroeste 27 Noroeste 0 -- -- 91
2020-04-02 23:00:00 3.4 13 Norte 24 Noroeste 0.2 -- -- 94
2020-04-02 22:00:00 3.4 14 Noroeste 24 Norte 0.2 -- -- 94
2020-04-02 21:00:00 4 10 Norte 26 Norte 0 -- -- 92
2020-04-02 20:00:00 4.4 17 Noroeste 31 Noroeste 0 -- -- 89
2020-04-02 19:00:00 4.8 13 Norte 28 Noroeste 0.2 -- -- 89
2020-04-02 18:00:00 5.1 18 Norte 27 Norte 0 -- -- 88
2020-04-02 17:00:00 5.8 13 Norte 26 Noroeste 0 -- -- 82
2020-04-02 16:00:00 6.2 14 Norte 27 Norte 0 -- -- 82
2020-04-02 15:00:00 5.7 9 Noroeste 22 Norte 0.2 -- -- 85
2020-04-02 14:00:00 5.7 5 Norte 20 Noroeste 0 -- -- 77
2020-04-02 13:00:00 4.3 6 Norte 18 Norte 0 -- -- 84
2020-04-02 12:00:00 3.4 9 Noroeste 20 Norte 0 -- -- 92
2020-04-02 11:00:00 2.8 10 Norte 21 Norte 0 -- -- 96
2020-04-02 10:00:00 2.8 13 Noroeste 20 Noroeste 0 -- -- 97
2020-04-02 09:00:00 2.4 10 Noroeste 14 Noroeste 0 -- -- 97
2020-04-02 08:00:00 1.9 11 Noroeste 17 Oeste 0 -- -- 97
2020-04-02 07:00:00 1.6 10 Oeste 14 Oeste 0 -- -- 96
2020-04-02 06:00:00 0.9 7 Noroeste 18 Oeste 0 -- -- 93
2020-04-02 05:00:00 1 10 Noroeste 14 Oeste 0 -- -- 93
2020-04-02 04:00:00 1.6 6 Noroeste 16 Oeste 0 -- -- 90
2020-04-02 03:00:00 3.5 9 Oeste 17 Oeste 0 -- -- 84
2020-04-02 02:00:00 2.5 4 Sudoeste 7 Oeste 0 -- -- 90
2020-04-02 01:00:00 2.6 3 Oeste 7 Sudoeste 0 -- -- 90
2020-04-02 00:00:00 3.1 2 Oeste 7 Oeste 0 -- -- 87
2020-04-01 23:00:00 3.5 7 Oeste 15 Oeste 0 -- -- 86
2020-04-01 22:00:00 4.1 10 Oeste 19 Oeste 0 -- -- 85
2020-04-01 21:00:00 4.8 12 Oeste 17 Noroeste 0 -- -- 83
2020-04-01 20:00:00 6.1 13 Noroeste 30 Oeste 0 -- -- 75
2020-04-01 19:00:00 8.7 12 Oeste 27 Oeste 0 -- -- 67
2020-04-01 18:00:00 8.6 15 Oeste 32 Oeste 0 -- -- 68
2020-04-01 17:00:00 10 13 Sudoeste 28 Oeste 0 -- -- 57
2020-04-01 16:00:00 9 18 Oeste 32 Sudoeste 0 -- -- 67
2020-04-01 15:00:00 7 18 Sudoeste 33 Sudoeste 0 -- -- 73
2020-04-01 14:00:00 7.1 4 Oeste 17 Sudoeste 0.6 -- -- 77
2020-04-01 13:00:00 6.5 7 Sudoeste 18 Sudeste 0.4 -- -- 81
2020-04-01 12:00:00 6 0 Calma 3 Este 0 -- -- 93
2020-04-01 11:00:00 4.4 0 Calma 2 Norte 0 -- -- 96
2020-04-01 10:00:00 3.5 0 Calma 8 Sudoeste 0.8 -- -- 98
2020-04-01 09:00:00 2.6 3 Oeste 8 Oeste 0.2 -- -- 98
2020-04-01 08:00:00 2.7 5 Sudeste 8 Sur 0 -- -- 98
2020-04-01 07:00:00 2.9 5 Sudeste 10 Sur 0 -- -- 98
2020-04-01 06:00:00 2.9 8 Sudeste 13 Sudeste 0.6 -- -- 98
2020-04-01 05:00:00 3 11 Sudeste 23 Sudeste 4.8 -- -- 97
2020-04-01 04:00:00 3.5 12 Sur 23 Sur 1 -- -- 99
2020-04-01 03:00:00 3.2 4 Sudeste 7 Sudeste 0.4 -- -- 99
2020-04-01 02:00:00 3.4 5 Sudeste 11 Sudeste 0.2 -- -- 99
2020-04-01 01:00:00 3.3 8 Sudeste 16 Sudeste 0.4 -- -- 99
2020-04-01 00:00:00 3.2 9 Sudeste 17 Sudeste 0.2 -- -- 99
2020-03-31 23:00:00 3.2 11 Sudeste 17 Sudeste 0.4 -- -- 98
2020-03-31 22:00:00 3.3 5 Sudeste 10 Sudeste 0 -- -- 97
2020-03-31 21:00:00 3.5 3 Sudeste 9 Este 0 -- -- 97
2020-03-31 20:00:00 3.6 2 Sudeste 14 Sudeste 0 -- -- 96
2020-03-31 19:00:00 3.7 5 Sudeste 13 Sudeste 0 -- -- 96
2020-03-31 18:00:00 4.1 6 Sudeste 13 Sudeste 0 -- -- 95
2020-03-31 17:00:00 4 6 Sudeste 18 Sudeste 0 -- -- 95
2020-03-31 16:00:00 3.9 10 Sudeste 21 Sudeste 0 -- -- 95
2020-03-31 15:00:00 3.1 12 Sudeste 19 Sudeste 0.2 -- -- 97
2020-03-31 14:00:00 2 10 Sur 26 Sudeste 0 -- -- 98
2020-03-31 13:00:00 1.3 15 Sudeste 30 Sudeste 0.8 -- -- 98
2020-03-31 12:00:00 0.9 13 Sudeste 25 Sudeste 1 -- -- 98
2020-03-31 11:00:00 0.4 13 Sudeste 20 Sur 4 -- -- 98
2020-03-31 10:00:00 0.1 8 Sudeste 18 Sudeste 2.8 -- -- 98
2020-03-31 09:00:00 0.2 9 Sudeste 13 Sudeste 2 -- -- 98
2020-03-31 08:00:00 -0.5 5 Sudeste 12 Sudeste 1.6 -- -- 98
2020-03-31 07:00:00 -1.7 0 Calma -- -- 1 -- -- 97
2020-03-31 06:00:00 -2.1 0 Calma -- -- 0.8 -- -- 97
2020-03-31 05:00:00 -2.8 0 Calma -- -- 0.4 -- -- 96
2020-03-31 04:00:00 -2.8 0 Calma 3 Oeste 0.8 -- -- 96
2020-03-31 03:00:00 -3 3 Oeste 8 Oeste 0.8 -- -- 96
2020-03-31 02:00:00 -3.3 5 Oeste 8 Oeste 1.4 -- -- 96
2020-03-31 01:00:00 -3.4 5 Oeste 9 Noroeste 1.4 -- -- 96
2020-03-31 00:00:00 -3.4 4 Noroeste 10 Noroeste 1 -- -- 96
2020-03-30 23:00:00 -3.5 6 Noroeste 15 Noroeste 0.2 -- -- 95
2020-03-30 22:00:00 -3.4 8 Noroeste 15 Noroeste 0.4 -- -- 95
2020-03-30 21:00:00 -3.2 10 Noroeste 19 Oeste 0.6 -- -- 95
2020-03-30 20:00:00 -2.9 9 Noroeste 18 Noroeste 0.2 -- -- 95
2020-03-30 19:00:00 -2.5 9 Noroeste 17 Noroeste 0.6 -- -- 95
2020-03-30 18:00:00 -2.4 9 Norte 18 Noroeste 0 -- -- 94
2020-03-30 17:00:00 -2.4 12 Norte 19 Norte 0 -- -- 94
2020-03-30 16:00:00 -2.1 11 Norte 18 Noroeste 0 -- -- 93
2020-03-30 15:00:00 -1.8 9 Noroeste 15 Noroeste 0 -- -- 93
2020-03-30 14:00:00 -2 10 Noroeste 16 Norte 0 -- -- 92
2020-03-30 13:00:00 -1.3 9 Norte 17 Norte 0.6 -- -- 91
2020-03-30 12:00:00 -1.6 8 Norte 16 Norte 1 -- -- 94
2020-03-30 11:00:00 -0.8 6 Norte 17 Nordeste 0.4 -- -- 96
2020-03-30 10:00:00 0.1 11 Norte 18 Norte 0 -- -- 96
2020-03-30 09:00:00 0.7 9 Norte 15 Norte 0 -- -- 95
2020-03-30 08:00:00 1.1 4 Norte 18 Oeste 0 -- -- 93
2020-03-30 07:00:00 1.1 11 Noroeste 15 Norte 0 -- -- 92
2020-03-30 06:00:00 1.7 8 Noroeste 14 Noroeste 0 -- -- 94
2020-03-30 05:00:00 1.7 9 Noroeste 16 Oeste 0 -- -- 95
2020-03-30 04:00:00 1.6 10 Noroeste 16 Noroeste 0 -- -- 95
2020-03-30 03:00:00 1.7 10 Noroeste 15 Noroeste 0 -- -- 94
2020-03-30 02:00:00 2.4 6 Noroeste 12 Oeste 0 -- -- 88
2020-03-30 01:00:00 2.9 9 Oeste 16 Oeste 0 -- -- 84
2020-03-30 00:00:00 3.2 12 Oeste 20 Oeste 0 -- -- 81
2020-03-29 23:00:00 3.8 15 Oeste 21 Oeste 0 -- -- 77
2020-03-29 22:00:00 5.5 15 Noroeste 22 Noroeste 0 -- -- 65
2020-03-29 21:00:00 7.5 9 Noroeste 13 Noroeste 0 -- -- 60
2020-03-29 20:00:00 9.6 3 Norte 8 Norte 0 -- -- 51
2020-03-29 19:00:00 10.4 4 Norte 13 Norte 0 -- -- 50
2020-03-29 18:00:00 11.2 5 Nordeste 13 Nordeste 0 -- -- 49
2020-03-29 17:00:00 11.6 5 Norte 12 Sudeste 0 -- -- 44
2020-03-29 16:00:00 11 7 Sudeste 12 Este 0 -- -- 51
2020-03-29 15:00:00 10.9 4 Este 17 Sudeste 0 -- -- 49
2020-03-29 14:00:00 11.1 3 Noroeste 15 Noroeste 0 -- -- 42
2020-03-29 13:00:00 11 11 Nordeste 24 Nordeste 0 -- -- 43
2020-03-29 12:00:00 10.2 4 Norte 11 Norte 0 -- -- 48
2020-03-29 11:00:00 8.7 3 Norte 9 Norte 0 -- -- 52
2020-03-29 10:00:00 6.4 6 Noroeste 9 Noroeste 0 -- -- 55
2020-03-29 09:00:00 5.1 7 Oeste 12 Oeste 0 -- -- 61
2020-03-29 08:00:00 3.2 8 Oeste 11 Oeste 0 -- -- 66
2020-03-29 07:00:00 3 7 Oeste 11 Oeste 0 -- -- 66
2020-03-29 06:00:00 3.3 8 Oeste 14 Oeste 0 -- -- 66
2020-03-29 05:00:00 3.2 8 Oeste 13 Oeste 0 -- -- 69
2020-03-29 03:00:00 3.2 9 Oeste 11 Oeste 0 -- -- 75
2020-03-29 01:00:00 3.2 7 Oeste 10 Oeste 0 -- -- 75
2020-03-29 00:00:00 3.5 9 Oeste 13 Noroeste 0 -- -- 75
2020-03-28 23:00:00 3.6 8 Oeste 13 Oeste 0 -- -- 75
2020-03-28 22:00:00 3.7 7 Oeste 15 Noroeste 0 -- -- 72
2020-03-28 21:00:00 4.4 8 Oeste 12 Oeste 0 -- -- 70
2020-03-28 20:00:00 5.3 5 Oeste 7 Oeste 0 -- -- 68
2020-03-28 19:00:00 6.8 4 Norte 14 Noroeste 0 -- -- 57
2020-03-28 18:00:00 7.2 5 Norte 13 Norte 0 -- -- 56
2020-03-28 17:00:00 6.9 8 Noroeste 15 Noroeste 0 -- -- 59
2020-03-28 16:00:00 6.8 5 Norte 15 Norte 0 -- -- 58
2020-03-28 15:00:00 7 7 Norte 14 Norte 0 -- -- 60
2020-03-28 14:00:00 6.1 5 Noroeste 13 Nordeste 0 -- -- 61
2020-03-28 13:00:00 5.3 7 Este 20 Este 0 -- -- 63
2020-03-28 12:00:00 4.9 10 Este 27 Nordeste 0 -- -- 65
2020-03-28 11:00:00 3.6 6 Norte 21 Noroeste 0 -- -- 72
2020-03-28 10:00:00 2.7 12 Norte 22 Noroeste 0 -- -- 77
2020-03-28 09:00:00 1.1 8 Norte 16 Noroeste 0 -- -- 84
2020-03-28 08:00:00 0.5 8 Oeste 15 Oeste 0 -- -- 86
2020-03-28 07:00:00 -0.1 7 Oeste 12 Oeste 0 -- -- 84
2020-03-28 06:00:00 0.1 4 Oeste 8 Oeste 0 -- -- 71
2020-03-28 05:00:00 -0.4 6 Oeste 9 Oeste 0 -- -- 87
2020-03-28 04:00:00 -1 5 Oeste 8 Oeste 0 -- -- 90
2020-03-28 03:00:00 -0.8 5 Oeste 8 Oeste 0 -- -- 91
2020-03-28 02:00:00 -0.3 0 Calma 4 Oeste 0 -- -- 88
2020-03-28 01:00:00 -0.3 2 Este 5 Sudeste 0 -- -- 85
2020-03-28 00:00:00 -0.3 0 Calma 6 Sudeste 0 -- -- 85
2020-03-27 23:00:00 -0.2 2 Sudeste 7 Sudeste 0 -- -- 89
2020-03-27 22:00:00 0.2 0 Calma 2 Oeste 0 -- -- 90
2020-03-27 21:00:00 0.5 0 Calma 4 Este 0 -- -- 89
2020-03-27 20:00:00 1.2 3 Este 9 Sudeste 0 -- -- 86
2020-03-27 19:00:00 2 8 Sudeste 11 Sudeste 0 -- -- 75
2020-03-27 18:00:00 2.9 7 Sudeste 20 Este 0 -- -- 68
2020-03-27 17:00:00 3.4 11 Este 21 Este 0 -- -- 67
2020-03-27 16:00:00 3.1 12 Sudeste 26 Sudeste 0 -- -- 69
2020-03-27 15:00:00 3.1 14 Sudeste 28 Sudeste 0 -- -- 67
2020-03-27 14:00:00 2.9 15 Este 26 Este 0 -- -- 71
2020-03-27 13:00:00 2 12 Este 23 Sudeste 0 -- -- 75
2020-03-27 12:00:00 0.4 9 Este 21 Este 0 -- -- 82
2020-03-27 11:00:00 0.5 13 Este 23 Este 0 -- -- 77
2020-03-27 10:00:00 -0.8 3 Norte 8 Noroeste 0 -- -- 85
2020-03-27 09:00:00 -2.3 3 Noroeste 7 Noroeste 0 -- -- 88
2020-03-27 08:00:00 -2.8 6 Norte 9 Noroeste 0 -- -- 79
2020-03-27 07:00:00 -2.8 5 Noroeste 9 Noroeste 0 -- -- 78
2020-03-27 06:00:00 -2.5 0 Calma 4 Sudeste 0 -- -- 76
2020-03-27 05:00:00 -2.5 0 Calma 4 Oeste 0 -- -- 76
2020-03-27 04:00:00 -2.2 0 Calma 6 Noroeste 0 -- -- 74
2020-03-27 03:00:00 -2.7 4 Oeste 17 Oeste 0 -- -- 74
2020-03-27 02:00:00 -2.7 11 Oeste 18 Oeste 0 -- -- 75
2020-03-27 01:00:00 -2.6 13 Oeste 16 Noroeste 0 -- -- 78
2020-03-27 00:00:00 -2.1 9 Noroeste 14 Noroeste 0 -- -- 79
2020-03-26 23:00:00 -1.3 8 Noroeste 15 Noroeste 0 -- -- 73
2020-03-26 22:00:00 -0.7 7 Noroeste 14 Noroeste 0 -- -- 69
2020-03-26 21:00:00 0.2 5 Noroeste 15 Noroeste 0 -- -- 67
2020-03-26 20:00:00 1.1 8 Noroeste 23 Norte 0 -- -- 64
2020-03-26 19:00:00 2.9 13 Noroeste 35 Noroeste 0 -- -- 52
2020-03-26 18:00:00 4.2 21 Norte 40 Norte 0 -- -- 49
2020-03-26 17:00:00 5.2 30 Noroeste 47 Noroeste 0 -- -- 48
2020-03-26 16:00:00 4.6 35 Noroeste 55 Noroeste 0 -- -- 49
2020-03-26 15:00:00 3.3 37 Noroeste 60 Noroeste 0 -- -- 64
2020-03-26 14:00:00 2.8 32 Noroeste 56 Noroeste 0 -- -- 68
2020-03-26 13:00:00 3 29 Noroeste 59 Noroeste 0 -- -- 63
2020-03-26 12:00:00 3.3 36 Noroeste 52 Noroeste 0 -- -- 66
2020-03-26 11:00:00 2.8 34 Noroeste 60 Noroeste 0 -- -- 67
2020-03-26 10:00:00 1.9 31 Noroeste 47 Noroeste 0 -- -- 76
2020-03-26 09:00:00 0 23 Noroeste 38 Norte 0 -- -- 80
2020-03-26 08:00:00 -1.2 22 Noroeste 37 Noroeste 0 -- -- 84
2020-03-26 07:00:00 -1.1 19 Noroeste 30 Noroeste 0 -- -- 81
2020-03-26 06:00:00 0.2 18 Noroeste 24 Noroeste 0 -- -- 88
2020-03-26 05:00:00 1.4 12 Noroeste 20 Oeste 0 -- -- 89
2020-03-26 04:00:00 1.7 12 Oeste 18 Oeste 0 -- -- 89
2020-03-26 03:00:00 2.6 8 Oeste 17 Oeste 0 -- -- 67
2020-03-26 02:00:00 2.5 13 Oeste 20 Oeste 0 -- -- 67
2020-03-26 01:00:00 0 3 Noroeste 6 Noroeste 0 -- -- 93
2020-03-26 00:00:00 0 3 Sudeste 8 Sudeste 0 -- -- 96
2020-03-25 23:00:00 0.6 6 Sudeste 8 Sudeste 0 -- -- 92
2020-03-25 22:00:00 2.1 0 Calma 6 Sudeste 0 -- -- 86
2020-03-25 21:00:00 3.2 5 Oeste 21 Noroeste 0 -- -- 85
2020-03-25 20:00:00 4.2 9 Noroeste 14 Noroeste 0 -- -- 77
2020-03-25 19:00:00 4.7 4 Noroeste 14 Nordeste 0 -- -- 75
2020-03-25 18:00:00 6.4 9 Nordeste 21 Norte 0 -- -- 65
2020-03-25 17:00:00 6.6 11 Norte 25 Norte 0 -- -- 60
2020-03-25 16:00:00 5.5 11 Norte 30 Norte 0 -- -- 73
2020-03-25 15:00:00 3.9 6 Norte 18 Noroeste 0.8 -- -- 89
2020-03-25 14:00:00 3.1 0 Calma 18 Este 1 -- -- 97
2020-03-25 13:00:00 3.3 9 Este 19 Sur 0 -- -- 93
2020-03-25 12:00:00 4.1 2 Noroeste 12 Nordeste 0.2 -- -- 93
2020-03-25 11:00:00 1.7 4 Sudeste 26 Nordeste 0 -- -- 97
2020-03-25 10:00:00 1.5 6 Sudeste 9 Este 0 -- -- 97
2020-03-25 09:00:00 1 6 Sudeste 13 Oeste 0 -- -- 95
2020-03-25 08:00:00 1.2 6 Sudoeste 15 Sudoeste 0 -- -- 92
2020-03-25 07:00:00 0.6 2 Este 6 Sudoeste 0 -- -- 94
2020-03-25 06:00:00 0.5 5 Sudeste 9 Sur 0 -- -- 93
2020-03-25 05:00:00 1.1 0 Calma 4 Oeste 0 -- -- 91
2020-03-25 04:00:00 1 0 Calma 3 Oeste 0 -- -- 91
2020-03-25 03:00:00 0.6 0 Calma 6 Sudeste 0 -- -- 91
2020-03-25 02:00:00 0.7 5 Sudeste 12 Sur 0 -- -- 87
2020-03-25 01:00:00 0.7 6 Sudeste 12 Sudeste 0 -- -- 94
2020-03-25 00:00:00 1.3 3 Este 9 Este 0 -- -- 93
2020-03-24 23:00:00 1.4 4 Sudeste 8 Sudeste 0 -- -- 90
2020-03-24 22:00:00 1.9 4 Sudeste 10 Este 0 -- -- 90
2020-03-24 21:00:00 3 4 Este 11 Este 0 -- -- 88
2020-03-24 20:00:00 3.3 7 Este 11 Este 0 -- -- 89
2020-03-24 19:00:00 3.6 7 Este 17 Sudeste 0 -- -- 88
2020-03-24 18:00:00 3.9 11 Este 27 Este 0 -- -- 86
2020-03-24 17:00:00 4.3 17 Este 28 Este 0 -- -- 84
2020-03-24 16:00:00 4.9 15 Este 32 Este 0 -- -- 81
2020-03-24 15:00:00 5.6 20 Este 31 Sudeste 0 -- -- 78
2020-03-24 14:00:00 4.5 16 Este 35 Este 0 -- -- 84
2020-03-24 13:00:00 4.2 18 Este 41 Este 0 -- -- 87
2020-03-24 12:00:00 4.6 18 Este 38 Este 0 -- -- 87
2020-03-24 11:00:00 4.3 22 Este 36 Este 0 -- -- 90
2020-03-24 10:00:00 3.9 14 Este 28 Este 0 -- -- 91
2020-03-24 09:00:00 3.4 15 Este 33 Este 0 -- -- 95
2020-03-24 08:00:00 3.5 14 Este 27 Nordeste 0 -- -- 95
2020-03-24 07:00:00 3.5 11 Nordeste 29 Este 0 -- -- 96
2020-03-24 06:00:00 3.5 8 Este 23 Este 0 -- -- 96
2020-03-24 05:00:00 3.6 9 Nordeste 28 Este 0 -- -- 96
2020-03-24 04:00:00 3.5 10 Este 22 Este 0 -- -- 95
2020-03-24 03:00:00 3.5 13 Este 27 Este 0 -- -- 94
2020-03-24 02:00:00 3.6 12 Este 28 Este 0 -- -- 95
2020-03-24 01:00:00 3.7 9 Este 22 Este 0 -- -- 96
2020-03-24 00:00:00 3.9 15 Este 24 Este 0 -- -- 97
2020-03-23 23:00:00 3.9 12 Este 24 Este 0.2 -- -- 97
2020-03-23 22:00:00 3.9 10 Este 31 Este 0 -- -- 96
2020-03-23 21:00:00 4 12 Este 22 Este 0 -- -- 96
2020-03-23 20:00:00 4.3 12 Este 21 Este 0 -- -- 95
2020-03-23 19:00:00 4.9 4 Este 10 Este 0 -- -- 95
2020-03-23 18:00:00 5.1 6 Este 18 Sudeste 0 -- -- 95
2020-03-23 17:00:00 5 6 Sudeste 18 Sudeste 0.4 -- -- 95
2020-03-23 16:00:00 4.3 10 Sudeste 23 Sudeste 2.8 -- -- 95
2020-03-23 15:00:00 6.1 9 Sudeste 19 Sudeste 0 -- -- 88
2020-03-23 14:00:00 6.8 12 Sudeste 23 Sudeste 0 -- -- 87
2020-03-23 13:00:00 6.1 13 Sudeste 22 Sur 1.4 -- -- 91
2020-03-23 12:00:00 4.9 6 Sudeste 19 Sudeste 0.6 -- -- 95
2020-03-23 11:00:00 4.2 8 Este 16 Este 0.4 -- -- 96
2020-03-23 10:00:00 4.1 6 Este 12 Este 0 -- -- 98
2020-03-23 09:00:00 3.4 3 Nordeste 14 Este 0 -- -- 98
2020-03-23 08:00:00 3.1 7 Este 18 Este 0.4 -- -- 98
2020-03-23 07:00:00 3 10 Este 20 Este 0.2 -- -- 98
2020-03-23 06:00:00 3.2 12 Este 23 Este 0 -- -- 98
2020-03-23 05:00:00 3.2 9 Este 18 Este 0.2 -- -- 98
2020-03-23 04:00:00 3 5 Este 15 Este 0 -- -- 98
2020-03-23 03:00:00 3 6 Nordeste 11 Nordeste 0 -- -- 97
2020-03-23 02:00:00 3.1 3 Nordeste 12 Este 0 -- -- 97
2020-03-23 01:00:00 3 3 Nordeste 9 Este 0 -- -- 97
2020-03-23 00:00:00 3.1 2 Este 4 Este 0 -- -- 97
2020-03-22 23:00:00 3.3 3 Nordeste 8 Nordeste 0 -- -- 97
2020-03-22 22:00:00 3.9 0 Calma 4 Nordeste 0 -- -- 97
2020-03-22 21:00:00 3.9 2 Este 9 Sudeste 0.2 -- -- 97
2020-03-22 20:00:00 4 4 Sudeste 6 Sudeste 0 -- -- 96
2020-03-22 19:00:00 4.1 3 Sudeste 6 Este 1.4 -- -- 95
2020-03-22 18:00:00 4.5 4 Sudeste 15 Sudeste 3 -- -- 93
2020-03-22 17:00:00 5.5 5 Nordeste 10 Nordeste 0 -- -- 91
2020-03-22 16:00:00 4.8 4 Nordeste 10 Este 0.6 -- -- 95
2020-03-22 15:00:00 3.7 5 Norte 12 Nordeste 0.4 -- -- 96
2020-03-22 14:00:00 4.6 10 Nordeste 16 Nordeste 0 -- -- 90
2020-03-22 13:00:00 6.1 8 Nordeste 14 Nordeste 0 -- -- 82
2020-03-22 12:00:00 4.7 6 Este 11 Este 0 -- -- 87
2020-03-22 11:00:00 4.5 4 Este 9 Este 0 -- -- 88
2020-03-22 10:00:00 3.9 2 Norte 8 Noroeste 0 -- -- 93
2020-03-22 09:00:00 3.1 4 Noroeste 8 Noroeste 0 -- -- 95
2020-03-22 08:00:00 2.7 0 Calma 5 Noroeste 0 -- -- 95
2020-03-22 07:00:00 2.3 2 Oeste 6 Oeste 0.4 -- -- 97
2020-03-22 06:00:00 2.4 2 Norte 9 Norte 0.4 -- -- 97
2020-03-22 05:00:00 2.8 0 Calma 8 Sur 0 -- -- 94
2020-03-22 04:00:00 2.3 0 Calma 4 Sur 0 -- -- 96
2020-03-22 03:00:00 2.3 0 Calma 13 Sudeste 0.6 -- -- 94
2020-03-22 02:00:00 2.5 9 Sudeste 15 Sur 1.4 -- -- 94
2020-03-22 01:00:00 2.8 8 Sudoeste 18 Sudoeste 0.8 -- -- 94
2020-03-22 00:00:00 3.3 5 Sudoeste 15 Sudeste 0.8 -- -- 98
2020-03-21 23:00:00 3.8 9 Sudeste 17 Sudeste 0.2 -- -- 98
2020-03-21 22:00:00 4 11 Sudeste 21 Sudeste 0 -- -- 97
2020-03-21 21:00:00 4.3 15 Sudeste 22 Sudeste 0 -- -- 96
2020-03-21 20:00:00 5 8 Sudeste 12 Sudeste 0 -- -- 91
2020-03-21 19:00:00 5.4 8 Sudeste 12 Sudeste 0 -- -- 88
2020-03-21 18:00:00 5.6 3 Sudeste 10 Sudeste 0 -- -- 88
2020-03-21 17:00:00 5 6 Sudeste 10 Este 0 -- -- 92
2020-03-21 16:00:00 4.8 6 Este 15 Este 0 -- -- 93
2020-03-21 15:00:00 5.1 10 Este 16 Este 0 -- -- 91
2020-03-21 14:00:00 4.8 10 Sudeste 19 Sudeste 0 -- -- 93
2020-03-21 13:00:00 4.6 10 Sudeste 15 Sudeste 0 -- -- 93
2020-03-21 12:00:00 3.8 9 Sudeste 18 Sudeste 0 -- -- 95
2020-03-21 11:00:00 3 11 Sudeste 25 Sudeste 0 -- -- 96
2020-03-21 10:00:00 2.6 15 Sudeste 31 Sudeste 0 -- -- 95
2020-03-21 09:00:00 2.6 15 Sudeste 24 Sudeste 0 -- -- 92
2020-03-21 08:00:00 2.3 13 Sudeste 24 Sudeste 0 -- -- 94
2020-03-21 07:00:00 2.2 6 Sudeste 13 Sudeste 0 -- -- 92
2020-03-21 06:00:00 2.5 6 Sudeste 13 Sudeste 0 -- -- 90
2020-03-21 05:00:00 2.4 7 Sudeste 19 Sudeste 0 -- -- 88
2020-03-21 04:00:00 2.3 12 Sudeste 23 Sur 0 -- -- 90
2020-03-21 03:00:00 2.4 14 Sudeste 23 Sur 0 -- -- 91
2020-03-21 02:00:00 2.3 16 Sudeste 29 Sudeste 0 -- -- 92
2020-03-21 01:00:00 3 21 Sudeste 31 Sudeste 0 -- -- 97
2020-03-21 00:00:00 4 10 Sudeste 17 Sudeste 0 -- -- 97
2020-03-20 23:00:00 4.3 8 Sudeste 14 Sudeste 0 -- -- 96
2020-03-20 22:00:00 4.5 5 Sudeste 11 Este 0 -- -- 96
2020-03-20 21:00:00 4.8 6 Sudeste 10 Este 0 -- -- 94
2020-03-20 20:00:00 5 5 Sur 9 Sudeste 0 -- -- 92
2020-03-20 19:00:00 5.3 4 Sudeste 14 Sudeste 0 -- -- 89
2020-03-20 18:00:00 6.6 5 Este 16 Sudeste 0 -- -- 85
2020-03-20 17:00:00 6.9 12 Sudeste 20 Sudeste 0 -- -- 84
2020-03-20 16:00:00 7.4 14 Sudeste 23 Este 0 -- -- 78
2020-03-20 15:00:00 8 15 Sudeste 28 Sudeste 0 -- -- 73
2020-03-20 14:00:00 8 16 Sudeste 29 Este 0 -- -- 72
2020-03-20 13:00:00 6.3 12 Sudeste 28 Sudeste 0 -- -- 81
2020-03-20 12:00:00 4.9 17 Sudeste 37 Sudeste 0 -- -- 86
2020-03-20 11:00:00 4.1 17 Sudeste 29 Sudeste 0 -- -- 89
2020-03-20 10:00:00 3.2 18 Sudeste 30 Sudeste 0 -- -- 91
2020-03-20 09:00:00 2.8 19 Sudeste 30 Sudeste 0 -- -- 94
2020-03-20 08:00:00 2.3 20 Sudeste 35 Sudeste 0 -- -- 97
2020-03-20 07:00:00 2.5 17 Sudeste 30 Sudeste 0 -- -- 97
2020-03-20 06:00:00 2.5 15 Sudeste 29 Sur 0 -- -- 96
2020-03-20 05:00:00 2.5 21 Sudeste 37 Sur 0 -- -- 95
2020-03-20 04:00:00 2.3 27 Sudeste 38 Sudeste 0 -- -- 94
2020-03-20 03:00:00 2.4 26 Sudeste 36 Sudeste 0 -- -- 94
2020-03-20 02:00:00 2.5 18 Sur 32 Sudeste 0 -- -- 93
2020-03-20 01:00:00 3 19 Sudeste 32 Sudeste 0 -- -- 92
2020-03-20 00:00:00 3.5 18 Sudeste 33 Sudeste 0 -- -- 94
2020-03-19 23:00:00 3.9 18 Sudeste 28 Sudeste 0 -- -- 93
2020-03-19 22:00:00 4.4 13 Sudeste 22 Sur 0 -- -- 93
2020-03-19 21:00:00 4.8 10 Sudeste 22 Sudeste 0 -- -- 92
2020-03-19 20:00:00 5.2 10 Sudeste 18 Sudeste 0 -- -- 91
2020-03-19 19:00:00 6.2 8 Sudeste 18 Sudeste 0 -- -- 85
2020-03-19 18:00:00 7.4 13 Sudeste 21 Sudeste 0 -- -- 80
2020-03-19 17:00:00 8.5 14 Sudeste 24 Sudeste 0 -- -- 75
2020-03-19 16:00:00 10 13 Sudeste 28 Sudeste 0 -- -- 70
2020-03-19 15:00:00 10.3 13 Sudeste 24 Sudeste 0 -- -- 66
2020-03-19 14:00:00 10 12 Este 23 Este 0 -- -- 69
2020-03-19 13:00:00 9.3 6 Sudeste 22 Sudeste 0 -- -- 66
2020-03-19 12:00:00 7.9 15 Sudeste 24 Sudeste 0 -- -- 71
2020-03-19 11:00:00 7.5 15 Sudeste 25 Sur 0 -- -- 68
2020-03-19 10:00:00 6.2 15 Sudeste 21 Este 0 -- -- 69
2020-03-19 09:00:00 5.5 6 Este 12 Sudeste 0 -- -- 56
2020-03-19 08:00:00 3.5 0 Calma 9 Oeste 0 -- -- 50
2020-03-19 07:00:00 3.2 8 Oeste 11 Noroeste 0 -- -- 51
2020-03-19 06:00:00 3.6 8 Oeste 11 Oeste 0 -- -- 50
2020-03-19 05:00:00 3.7 5 Oeste 10 Oeste 0 -- -- 54
2020-03-19 04:00:00 3.7 4 Oeste 8 Oeste 0 -- -- 58
2020-03-19 03:00:00 4.3 3 Noroeste 8 Noroeste 0 -- -- 54
2020-03-19 02:00:00 4.6 3 Oeste 7 Oeste 0 -- -- 55
2020-03-19 01:00:00 5 0 Calma 8 Oeste 0 -- -- 58
2020-03-19 00:00:00 5.7 3 Norte 9 Nordeste 0 -- -- 62
2020-03-18 23:00:00 5.7 0 Calma 5 Nordeste 0 -- -- 68
2020-03-18 22:00:00 5.9 2 Nordeste 7 Este 0 -- -- 77
2020-03-18 21:00:00 6.4 0 Calma 4 Este 0 -- -- 83
2020-03-18 20:00:00 7 2 Oeste 5 Este 0 -- -- 84
2020-03-18 19:00:00 8.1 0 Calma 10 Nordeste 0 -- -- 82
2020-03-18 18:00:00 9.3 6 Nordeste 16 Este 0 -- -- 75
2020-03-18 17:00:00 10.1 10 Nordeste 22 Nordeste 0 -- -- 66
2020-03-18 16:00:00 10.4 10 Nordeste 19 Este 0 -- -- 64
2020-03-18 15:00:00 10.1 7 Nordeste 15 Este 0 -- -- 66
2020-03-18 14:00:00 9.3 9 Este 17 Este 0 -- -- 66
2020-03-18 13:00:00 8.9 9 Sudeste 15 Este 0 -- -- 64
2020-03-18 12:00:00 8.1 2 Norte 6 Nordeste 0 -- -- 70
2020-03-18 11:00:00 7.4 2 Noroeste 7 Noroeste 0 -- -- 73
2020-03-18 10:00:00 6.6 5 Noroeste 10 Oeste 0 -- -- 76
2020-03-18 09:00:00 4.8 8 Oeste 13 Oeste 0 -- -- 76
2020-03-18 08:00:00 4.3 5 Oeste 10 Oeste 0 -- -- 78
2020-03-18 07:00:00 4 5 Oeste 11 Oeste 0 -- -- 80
2020-03-18 06:00:00 4 6 Oeste 10 Oeste 0 -- -- 82
2020-03-18 05:00:00 3.9 3 Noroeste 9 Oeste 0 -- -- 85
2020-03-18 04:00:00 3.7 3 Oeste 8 Noroeste 0 -- -- 86
2020-03-18 03:00:00 3.9 2 Oeste 12 Nordeste 0.2 -- -- 86
2020-03-18 02:00:00 3.9 0 Calma 10 Nordeste 0 -- -- 87
2020-03-18 01:00:00 4.1 3 Noroeste 9 Nordeste 0 -- -- 87
2020-03-18 00:00:00 4.6 7 Este 17 Este 0 -- -- 86
2020-03-17 23:00:00 5 6 Nordeste 15 Noroeste 0 -- -- 88
2020-03-17 22:00:00 4.9 4 Oeste 14 Nordeste 0 -- -- 93
2020-03-17 21:00:00 5 3 Nordeste 10 Este 0 -- -- 92
2020-03-17 20:00:00 5.5 7 Este 20 Este 0 -- -- 90
2020-03-17 19:00:00 6.1 11 Este 18 Este 0 -- -- 91
2020-03-17 18:00:00 6.4 10 Este 22 Este 0 -- -- 94
2020-03-17 17:00:00 6.4 12 Este 38 Este 0 -- -- 97
2020-03-17 16:00:00 6.3 16 Este 41 Este 0 -- -- 98
2020-03-17 15:00:00 5.7 0 Calma 4 Sudoeste 0.8 -- -- 98
2020-03-17 14:00:00 5.3 3 Oeste 5 Nordeste 2.4 -- -- 98
2020-03-17 13:00:00 4.8 4 Este 6 Este 0.8 -- -- 98
2020-03-17 12:00:00 4.2 0 Calma 4 Oeste 1 -- -- 98
2020-03-17 11:00:00 3.7 2 Sudoeste 5 Este 1 -- -- 98
2020-03-17 10:00:00 3.6 3 Oeste 8 Oeste 2 -- -- 98
2020-03-17 09:00:00 2.8 3 Oeste 5 Oeste 1.8 -- -- 98
2020-03-17 08:00:00 2.9 3 Sudoeste 8 Sur 1.2 -- -- 99
2020-03-17 07:00:00 2.8 2 Sudeste 23 Sur 2 -- -- 99
2020-03-17 06:00:00 3.3 12 Sudeste 20 Sudeste 3.4 -- -- 99
2020-03-17 05:00:00 3.3 9 Sudeste 14 Sudeste 2.8 -- -- 99
2020-03-17 04:00:00 3.3 6 Sudeste 16 Este 4.2 -- -- 99
2020-03-17 03:00:00 3.1 2 Sur 5 Sudeste 2.4 -- -- 99
2020-03-17 02:00:00 2.9 0 Calma 14 Este 0.6 -- -- 99
2020-03-17 01:00:00 2.7 4 Este 14 Sudeste 1.2 -- -- 99
2020-03-17 00:00:00 2 3 Este 11 Este 1 -- -- 99
2020-03-16 23:00:00 1 0 Calma 5 Oeste 0.4 -- -- 98
2020-03-16 22:00:00 0.6 0 Calma 7 Oeste 0.6 -- -- 98
2020-03-16 21:00:00 0.2 0 Calma -- -- 2.2 -- -- 98
2020-03-16 20:00:00 0.2 0 Calma -- -- 2.6 -- -- 98
2020-03-16 19:00:00 0 0 Calma -- -- 1.4 -- -- 98
2020-03-16 18:00:00 0.4 0 Calma 2 Oeste 1.4 -- -- 97
2020-03-16 17:00:00 0.3 3 Sudoeste 7 Sudoeste 1.6 -- -- 98
2020-03-16 16:00:00 0.2 0 Calma -- -- 3.4 -- -- 98
2020-03-16 15:00:00 0.2 0 Calma 0 Calma 2.6 -- -- 98
2020-03-16 14:00:00 0.2 0 Calma 10 Noroeste 1.6 -- -- 98
2020-03-16 13:00:00 0.3 3 Norte 9 Sudeste 1.6 -- -- 98
2020-03-16 12:00:00 0.3 6 Sudeste 31 Sudoeste 1.6 -- -- 97
2020-03-16 11:00:00 1.2 19 Sudoeste 40 Sudoeste 2.2 -- -- 96
2020-03-16 10:00:00 0.9 15 Sudoeste 36 Sudoeste 7.6 -- -- 98
2020-03-16 09:00:00 1.3 16 Sudoeste 47 Sudoeste 8 -- -- 98
2020-03-16 08:00:00 5 22 Sudeste 42 Sudeste 1.6 -- -- 99
2020-03-16 07:00:00 4.9 21 Sudeste 46 Sudeste 0.2 -- -- 99
2020-03-16 06:00:00 4.8 23 Sudeste 40 Sudeste 0 -- -- 99
2020-03-16 05:00:00 4.6 22 Sudeste 39 Sudeste 0 -- -- 98
2020-03-16 04:00:00 4.4 18 Sudeste 31 Sudeste 2.6 -- -- 98
2020-03-16 03:00:00 4.3 12 Sudeste 29 Sudeste 4.4 -- -- 98
2020-03-16 02:00:00 4.7 9 Sudeste 37 Sudeste 2.6 -- -- 98
2020-03-16 01:00:00 5.1 21 Sudeste 36 Sudeste 2.4 -- -- 97
2020-03-16 00:00:00 5.1 9 Sudeste 19 Sudeste 1.2 -- -- 96
2020-03-15 23:00:00 5.1 13 Sur 27 Sudeste 1.8 -- -- 97
2020-03-15 22:00:00 5 19 Sudeste 28 Sur 0.4 -- -- 96
2020-03-15 21:00:00 5.6 16 Sudeste 27 Sur 4.8 -- -- 91
2020-03-15 20:00:00 5.6 19 Oeste 44 Oeste 4.6 -- -- 86
2020-03-15 19:00:00 8.3 15 Sudeste 31 Sudeste 0.6 -- -- 81
2020-03-15 18:00:00 10 15 Sudeste 27 Sudeste 0 -- -- 79
2020-03-15 17:00:00 11.5 14 Sur 30 Sur 0 -- -- 69
2020-03-15 16:00:00 12.3 15 Sur 30 Sur 0 -- -- 63
2020-03-15 15:00:00 11.8 14 Sur 24 Sur 0 -- -- 64
2020-03-15 14:00:00 11.6 15 Sur 28 Sudeste 0 -- -- 65
2020-03-15 13:00:00 10.7 10 Sudeste 29 Sudeste 0 -- -- 72
2020-03-15 12:00:00 10.1 19 Sudeste 31 Sudeste 0 -- -- 77
2020-03-15 11:00:00 10.9 16 Sudeste 26 Sudeste 0 -- -- 76
2020-03-15 10:00:00 9.4 11 Sudeste 18 Sudeste 0 -- -- 82
2020-03-15 09:00:00 8.6 10 Sudeste 18 Sudeste 0 -- -- 85
2020-03-15 08:00:00 7.6 10 Sudeste 18 Sudeste 0 -- -- 89
2020-03-15 07:00:00 7.7 11 Sur 20 Sur 0 -- -- 88
2020-03-15 06:00:00 7.6 14 Sur 23 Sur 0 -- -- 88
2020-03-15 05:00:00 7.6 17 Sur 24 Sur 0 -- -- 88
2020-03-15 04:00:00 8 18 Sur 29 Sur 0 -- -- 85
2020-03-15 03:00:00 7.8 18 Sur 27 Sur 0 -- -- 85
2020-03-15 02:00:00 7.9 18 Sur 28 Sur 0 -- -- 84
2020-03-15 01:00:00 7.9 18 Sur 28 Sur 0 -- -- 85
2020-03-15 00:00:00 7.8 10 Sur 15 Sur 0 -- -- 87
2020-03-14 23:00:00 7.8 4 Oeste 7 Oeste 0 -- -- 63
2020-03-14 22:00:00 9 0 Calma 6 Noroeste 0 -- -- 66
2020-03-14 21:00:00 9.8 3 Oeste 6 Norte 0 -- -- 80
2020-03-14 20:00:00 10.2 3 Sudeste 8 Sur 0 -- -- 78
2020-03-14 19:00:00 11.3 4 Sur 13 Sudeste 0 -- -- 73
2020-03-14 18:00:00 12.8 5 Sudeste 13 Sudeste 0 -- -- 67
2020-03-14 17:00:00 13.2 8 Sudeste 13 Sudeste 0 -- -- 63
2020-03-14 16:00:00 13.8 4 Este 13 Este 0 -- -- 58
2020-03-14 15:00:00 13.2 7 Sur 18 Sur 0 -- -- 63
2020-03-14 14:00:00 13.8 13 Sudeste 23 Sudeste 0 -- -- 61
2020-03-14 13:00:00 13.6 6 Nordeste 12 Nordeste 0 -- -- 61
2020-03-14 12:00:00 14.1 6 Este 15 Nordeste 0 -- -- 63
2020-03-14 11:00:00 12.6 6 Nordeste 12 Norte 0 -- -- 70
2020-03-14 10:00:00 9.5 8 Noroeste 19 Noroeste 0 -- -- 81
2020-03-14 09:00:00 8.4 14 Noroeste 20 Noroeste 0 -- -- 85
2020-03-14 08:00:00 7.7 8 Oeste 16 Oeste 0 -- -- 85
2020-03-14 07:00:00 5.8 7 Oeste 11 Oeste 0 -- -- 91
2020-03-14 06:00:00 6.3 0 Calma 13 Oeste 0 -- -- 89
2020-03-14 05:00:00 5.9 4 Noroeste 7 Norte 0 -- -- 88
2020-03-14 04:00:00 5.7 0 Calma 6 Oeste 0 -- -- 93
2020-03-14 03:00:00 5.3 2 Sudeste 8 Sudeste 0 -- -- 93
2020-03-14 02:00:00 6.2 2 Este 9 Sudeste 0 -- -- 92
2020-03-14 01:00:00 6.1 0 Calma 3 Sudeste 0 -- -- 92
2020-03-14 00:00:00 6.2 0 Calma 7 Sur 0 -- -- 90
2020-03-13 23:00:00 6.9 2 Noroeste 9 Noroeste 0 -- -- 87
2020-03-13 22:00:00 7.7 4 Oeste 16 Oeste 0 -- -- 84
2020-03-13 21:00:00 8.2 5 Oeste 32 Sudoeste 0 -- -- 82
2020-03-13 20:00:00 10.5 19 Sudoeste 35 Sudoeste 0 -- -- 73
2020-03-13 19:00:00 10.5 19 Sur 26 Sur 0 -- -- 75
2020-03-13 18:00:00 11.9 18 Sudeste 30 Sudeste 0 -- -- 69
2020-03-13 17:00:00 13.4 17 Sudeste 31 Este 0 -- -- 63
2020-03-13 16:00:00 13.8 23 Sudeste 35 Sudeste 0 -- -- 59
2020-03-13 15:00:00 14.1 20 Sudeste 45 Este 0 -- -- 57
2020-03-13 14:00:00 14.2 22 Sudeste 36 Sudeste 0 -- -- 56
2020-03-13 13:00:00 13.7 23 Sudeste 33 Sudeste 0 -- -- 61
2020-03-13 12:00:00 13.3 21 Sudeste 35 Sudeste 0 -- -- 62
2020-03-13 11:00:00 12.5 18 Sudeste 27 Sudeste 0 -- -- 68
2020-03-13 10:00:00 8.6 12 Sudeste 19 Sudeste 0 -- -- 81
2020-03-13 09:00:00 8.8 0 Calma 8 Este 0 -- -- 78
2020-03-13 08:00:00 8.4 3 Este 10 Sur 0 -- -- 76
2020-03-13 07:00:00 9.4 4 Oeste 17 Sur 0 -- -- 70
2020-03-13 06:00:00 11.1 12 Sudeste 15 Sudeste 0 -- -- 62
2020-03-13 05:00:00 10.3 5 Noroeste 10 Oeste 0 -- -- 62
2020-03-13 04:00:00 11.4 3 Noroeste 11 Sudoeste 0 -- -- 58
2020-03-13 03:00:00 13.1 5 Sudoeste 25 Sudoeste 0 -- -- 52
2020-03-13 02:00:00 13.9 16 Sudoeste 23 Sudoeste 0 -- -- 47
2020-03-13 01:00:00 14.2 12 Sudoeste 26 Sudoeste 0 -- -- 47
2020-03-13 00:00:00 14.8 14 Sudoeste 26 Sudoeste 0 -- -- 48
2020-03-12 23:00:00 15.5 14 Sudoeste 24 Sur 0 -- -- 46
2020-03-12 22:00:00 16.1 12 Sudoeste 22 Sur 0 -- -- 43
2020-03-12 21:00:00 16.8 12 Sudoeste 24 Sudoeste 0 -- -- 40
2020-03-12 20:00:00 16.9 9 Sur 22 Sudoeste 0 -- -- 39
2020-03-12 19:00:00 17.9 10 Sur 18 Sudoeste 0 -- -- 37
2020-03-12 18:00:00 19.4 10 Sur 22 Sur 0 -- -- 35
2020-03-12 17:00:00 20.7 12 Sur 26 Sudeste 0 -- -- 31
2020-03-12 16:00:00 20.9 14 Sur 31 Este 0 -- -- 31
2020-03-12 15:00:00 20.2 17 Sudeste 33 Sudeste 0 -- -- 38
2020-03-12 14:00:00 21.3 18 Sudeste 29 Este 0 -- -- 37
2020-03-12 13:00:00 20.9 17 Sudeste 26 Sudeste 0 -- -- 36
2020-03-12 12:00:00 20.6 14 Sudeste 24 Este 0 -- -- 34
2020-03-12 11:00:00 20.1 8 Sudeste 17 Este 0 -- -- 34
2020-03-12 10:00:00 19.3 9 Sudeste 15 Sudeste 0 -- -- 35
2020-03-12 09:00:00 17.5 6 Sudeste 10 Sudeste 0 -- -- 34
2020-03-12 08:00:00 14.1 8 Sudeste 11 Sudeste 0 -- -- 41
2020-03-12 07:00:00 13.4 3 Sudoeste 17 Sudoeste 0 -- -- 44
2020-03-12 06:00:00 15.2 13 Sudoeste 18 Sudoeste 0 -- -- 33
2020-03-12 05:00:00 14.7 13 Sudoeste 23 Sudoeste 0 -- -- 36
2020-03-12 04:00:00 15.4 19 Sudoeste 26 Sudoeste 0 -- -- 40
2020-03-12 03:00:00 13.9 8 Sur 14 Sur 0 -- -- 51
2020-03-12 02:00:00 13.1 7 Sur 13 Sur 0 -- -- 54
2020-03-12 01:00:00 12.7 6 Sur 8 Sur 0 -- -- 54
2020-03-12 00:00:00 13.2 4 Sur 10 Sudeste 0 -- -- 50
2020-03-11 23:00:00 14.7 5 Oeste 10 Oeste 0 -- -- 46
2020-03-11 22:00:00 14.7 5 Oeste 7 Sur 0 -- -- 46
2020-03-11 21:00:00 15.1 5 Oeste 10 Sudoeste 0 -- -- 44
2020-03-11 20:00:00 15.9 9 Oeste 14 Oeste 0 -- -- 42
2020-03-11 19:00:00 16.4 4 Sur 10 Sudeste 0 -- -- 46
2020-03-11 18:00:00 20.2 4 Sudeste 18 Norte 0 -- -- 38
2020-03-11 17:00:00 21.7 10 Norte 28 Noroeste 0 -- -- 30
2020-03-11 16:00:00 21.4 16 Noroeste 26 Noroeste 0 -- -- 29
2020-03-11 15:00:00 21.2 5 Este 24 Sudeste 0 -- -- 37
2020-03-11 14:00:00 20.9 12 Oeste 24 Oeste 0 -- -- 29
2020-03-11 13:00:00 20.1 10 Noroeste 32 Noroeste 0 -- -- 32
2020-03-11 12:00:00 19 6 Norte 16 Noroeste 0 -- -- 38
2020-03-11 11:00:00 16.8 3 Norte 6 Norte 0 -- -- 46
2020-03-11 10:00:00 14.8 2 Norte 5 Nordeste 0 -- -- 51
2020-03-11 09:00:00 12.4 3 Noroeste 9 Noroeste 0 -- -- 56
2020-03-11 08:00:00 9.7 8 Noroeste 14 Noroeste 0 -- -- 61
2020-03-11 07:00:00 9.2 10 Noroeste 18 Oeste 0 -- -- 61
2020-03-11 06:00:00 10.6 14 Oeste 20 Noroeste 0 -- -- 56
2020-03-11 05:00:00 10.9 15 Noroeste 28 Noroeste 0 -- -- 58
2020-03-11 04:00:00 11.1 19 Oeste 27 Oeste 0 -- -- 58
2020-03-11 03:00:00 9.7 9 Noroeste 21 Oeste 0 -- -- 61
2020-03-11 02:00:00 11.1 16 Oeste 35 Oeste 0 -- -- 56
2020-03-11 01:00:00 13.6 28 Oeste 49 Oeste 0 -- -- 45
2020-03-11 00:00:00 14.1 32 Oeste 45 Oeste 0 -- -- 44
2020-03-10 23:00:00 13.5 27 Oeste 38 Oeste 0 -- -- 47
2020-03-10 22:00:00 13.2 21 Oeste 35 Oeste 0 -- -- 47
2020-03-10 21:00:00 13.5 20 Oeste 29 Noroeste 0 -- -- 47
2020-03-10 20:00:00 13.9 17 Oeste 23 Oeste 0 -- -- 49
2020-03-10 19:00:00 14.3 6 Oeste 13 Oeste 0 -- -- 51
2020-03-10 18:00:00 17.1 2 Noroeste 12 Norte 0 -- -- 44
2020-03-10 17:00:00 18.8 6 Noroeste 15 Noroeste 0 -- -- 40
2020-03-10 16:00:00 18.3 4 Noroeste 17 Norte 0 -- -- 40
2020-03-10 15:00:00 17.2 9 Norte 22 Norte 0 -- -- 42
2020-03-10 14:00:00 16.8 11 Norte 23 Norte 0 -- -- 43
2020-03-10 13:00:00 15.6 6 Norte 27 Noroeste 0 -- -- 42
2020-03-10 12:00:00 13.5 18 Noroeste 37 Noroeste 0 -- -- 44
2020-03-10 11:00:00 12.1 29 Noroeste 50 Noroeste 0 -- -- 42
2020-03-10 10:00:00 10.3 22 Noroeste 38 Noroeste 0 -- -- 42
2020-03-10 09:00:00 8 23 Noroeste 39 Noroeste 0 -- -- 47
2020-03-10 08:00:00 5.9 30 Oeste 48 Oeste 0 -- -- 53
2020-03-10 07:00:00 5 30 Oeste 40 Noroeste 0 -- -- 58
2020-03-10 06:00:00 4.7 27 Noroeste 38 Noroeste 0 -- -- 65
2020-03-10 05:00:00 3.7 20 Noroeste 36 Noroeste 0 -- -- 67
2020-03-10 04:00:00 4.5 28 Noroeste 44 Noroeste 0 -- -- 68
2020-03-10 03:00:00 4.5 22 Noroeste 47 Noroeste 0 -- -- 70
2020-03-10 02:00:00 4.4 33 Noroeste 51 Noroeste 0 -- -- 67
2020-03-10 01:00:00 3.8 24 Noroeste 39 Noroeste 0 -- -- 64
2020-03-10 00:00:00 3.7 14 Noroeste 37 Noroeste 0 -- -- 60
2020-03-09 23:00:00 4 20 Noroeste 44 Noroeste 0 -- -- 57
2020-03-09 22:00:00 4.3 24 Noroeste 46 Noroeste 0 -- -- 62
2020-03-09 21:00:00 5.4 19 Noroeste 44 Noroeste 0 -- -- 66
2020-03-09 20:00:00 6.4 30 Noroeste 46 Noroeste 0 -- -- 63
2020-03-09 19:00:00 7.3 32 Noroeste 51 Noroeste 0 -- -- 55
2020-03-09 18:00:00 8.5 35 Noroeste 45 Noroeste 0 -- -- 52
2020-03-09 17:00:00 9.7 24 Noroeste 44 Noroeste 0 -- -- 48
2020-03-09 16:00:00 9.8 28 Noroeste 54 Noroeste 0 -- -- 48
2020-03-09 15:00:00 9.7 32 Noroeste 54 Noroeste 0 -- -- 45
2020-03-09 14:00:00 9.5 27 Noroeste 48 Noroeste 0 -- -- 43
2020-03-09 13:00:00 8.4 26 Noroeste 44 Noroeste 0 -- -- 47
2020-03-09 12:00:00 6.2 27 Noroeste 45 Norte 0 -- -- 61
2020-03-09 11:00:00 5 18 Noroeste 40 Noroeste 0 -- -- 73
2020-03-09 10:00:00 3.7 21 Noroeste 40 Noroeste 0 -- -- 77
2020-03-09 09:00:00 3.2 21 Noroeste 46 Noroeste 0 -- -- 79
2020-03-09 08:00:00 2.7 33 Noroeste 48 Noroeste 0 -- -- 76
2020-03-09 07:00:00 2.9 19 Noroeste 46 Noroeste 0 -- -- 75
2020-03-09 06:00:00 3.4 30 Noroeste 52 Noroeste 0 -- -- 78
2020-03-09 05:00:00 3.1 16 Noroeste 29 Oeste 0 -- -- 82
2020-03-09 04:00:00 3.7 21 Noroeste 29 Oeste 0 -- -- 81
2020-03-09 03:00:00 3.9 17 Noroeste 22 Noroeste 0 -- -- 83
2020-03-09 02:00:00 3.6 13 Noroeste 21 Noroeste 0 -- -- 82
2020-03-09 01:00:00 4.5 11 Noroeste 38 Oeste 0 -- -- 76
2020-03-09 00:00:00 5.9 27 Oeste 43 Oeste 0 -- -- 71
2020-03-08 23:00:00 6.6 30 Oeste 51 Oeste 0 -- -- 59
2020-03-08 22:00:00 7.7 25 Oeste 43 Oeste 0 -- -- 49
2020-03-08 21:00:00 7.9 28 Oeste 46 Oeste 0 -- -- 42
2020-03-08 20:00:00 8.3 17 Oeste 30 Oeste 0 -- -- 51
2020-03-08 19:00:00 9.9 14 Oeste 32 Oeste 0 -- -- 46
2020-03-08 18:00:00 11.4 16 Noroeste 26 Oeste 0 -- -- 39
2020-03-08 17:00:00 13.3 16 Noroeste 31 Noroeste 0 -- -- 27
2020-03-08 16:00:00 13.9 14 Noroeste 29 Noroeste 0 -- -- 22
2020-03-08 15:00:00 14 12 Noroeste 28 Noroeste 0 -- -- 20
2020-03-08 14:00:00 13.6 6 Noroeste 25 Noroeste 0 -- -- 22
2020-03-08 13:00:00 12.5 7 Sudeste 19 Sudeste 0 -- -- 46
2020-03-08 12:00:00 12.4 9 Norte 28 Noroeste 0 -- -- 22
2020-03-08 11:00:00 11.1 5 Nordeste 17 Noroeste 0 -- -- 30
2020-03-08 10:00:00 6.6 8 Norte 14 Norte 0 -- -- 49
2020-03-08 09:00:00 3.4 2 Oeste 12 Norte 0 -- -- 60
2020-03-08 08:00:00 1.6 3 Oeste 13 Sudeste 0 -- -- 59
2020-03-08 07:00:00 0.4 0 Calma 6 Sur 0 -- -- 65
2020-03-08 06:00:00 1.1 0 Calma 11 Sudeste 0 -- -- 65
2020-03-08 05:00:00 3.4 8 Oeste 14 Oeste 0 -- -- 52
2020-03-08 04:00:00 3.2 2 Noroeste 22 Noroeste 0 -- -- 58
2020-03-08 03:00:00 4.3 16 Oeste 27 Oeste 0 -- -- 54
2020-03-08 02:00:00 4.4 19 Oeste 32 Oeste 0 -- -- 60
2020-03-08 01:00:00 4 17 Noroeste 38 Oeste 0 -- -- 66
2020-03-08 00:00:00 4.3 28 Oeste 40 Oeste 0 -- -- 68
2020-03-07 23:00:00 3.6 22 Oeste 29 Noroeste 0 -- -- 77
2020-03-07 22:00:00 3.1 10 Noroeste 22 Noroeste 0 -- -- 81
2020-03-07 21:00:00 3.9 17 Noroeste 41 Noroeste 0 -- -- 77
2020-03-07 20:00:00 4.5 28 Noroeste 45 Noroeste 0 -- -- 75
2020-03-07 19:00:00 5.4 33 Noroeste 52 Noroeste 0 -- -- 69
2020-03-07 18:00:00 6.6 37 Noroeste 57 Noroeste 0 -- -- 63
2020-03-07 17:00:00 7.6 34 Noroeste 57 Noroeste 0 -- -- 61
2020-03-07 16:00:00 7.6 31 Noroeste 60 Noroeste 0 -- -- 60
2020-03-07 15:00:00 6.7 39 Noroeste 63 Noroeste 0 -- -- 64
2020-03-07 14:00:00 6.6 40 Noroeste 65 Noroeste 0 -- -- 64
2020-03-07 13:00:00 5.8 41 Noroeste 70 Noroeste 0 -- -- 65
2020-03-07 12:00:00 4.9 49 Noroeste 76 Noroeste 0 -- -- 68
2020-03-07 11:00:00 4 46 Noroeste 75 Noroeste 0 -- -- 71
2020-03-07 10:00:00 3 38 Noroeste 62 Noroeste 0 -- -- 72
2020-03-07 09:00:00 1.4 42 Noroeste 74 Noroeste 0 -- -- 76
2020-03-07 08:00:00 -0.3 30 Noroeste 47 Noroeste 0 -- -- 78
2020-03-07 07:00:00 -0.9 26 Noroeste 50 Noroeste 0 -- -- 76
2020-03-07 06:00:00 -0.7 33 Noroeste 59 Oeste 0 -- -- 73
2020-03-07 05:00:00 -0.1 29 Noroeste 56 Noroeste 0 -- -- 71
2020-03-07 04:00:00 -0.1 33 Noroeste 58 Noroeste 0 -- -- 71
2020-03-07 03:00:00 0 39 Noroeste 64 Noroeste 0 -- -- 68
2020-03-07 02:00:00 -0.7 31 Noroeste 53 Noroeste 0 -- -- 71
2020-03-07 01:00:00 -0.7 26 Noroeste 73 Noroeste 0 -- -- 68
2020-03-07 00:00:00 -0.2 44 Noroeste 81 Noroeste 0 -- -- 64
2020-03-06 23:00:00 0.1 54 Noroeste 82 Noroeste 0 -- -- 62
2020-03-06 22:00:00 0.7 53 Noroeste 78 Noroeste 0 -- -- 62
2020-03-06 21:00:00 0.9 44 Noroeste 73 Noroeste 0 -- -- 62
2020-03-06 20:00:00 1.4 38 Noroeste 55 Noroeste 0 -- -- 59
2020-03-06 19:00:00 1.4 35 Noroeste 68 Noroeste 0 -- -- 61
2020-03-06 18:00:00 1.8 42 Noroeste 71 Noroeste 0 -- -- 60
2020-03-06 17:00:00 3.3 40 Noroeste 70 Noroeste 0 -- -- 52
2020-03-06 16:00:00 1.9 42 Noroeste 60 Oeste 0 -- -- 69
2020-03-06 15:00:00 2.8 40 Noroeste 74 Noroeste 0 -- -- 68
2020-03-06 14:00:00 4.3 48 Noroeste 80 Noroeste 0 -- -- 55
2020-03-06 13:00:00 4.1 44 Noroeste 79 Noroeste 0 -- -- 60
2020-03-06 12:00:00 3.1 50 Noroeste 69 Noroeste 0 -- -- 59
2020-03-06 11:00:00 2.9 40 Noroeste 76 Noroeste 0 -- -- 61
2020-03-06 10:00:00 2.4 42 Noroeste 75 Oeste 0 -- -- 64
2020-03-06 09:00:00 2.1 36 Noroeste 55 Oeste 0 -- -- 69
2020-03-06 08:00:00 0.9 22 Oeste 40 Noroeste 0 -- -- 83
2020-03-06 07:00:00 1.3 24 Oeste 50 Oeste 0 -- -- 79
2020-03-06 06:00:00 0.9 30 Oeste 61 Oeste 0 -- -- 77
2020-03-06 05:00:00 1 32 Oeste 58 Oeste 0 -- -- 75
2020-03-06 04:00:00 2.1 33 Oeste 52 Oeste 0 -- -- 74
2020-03-06 03:00:00 2.7 23 Oeste 38 Oeste 0 -- -- 76
2020-03-06 02:00:00 2.7 26 Oeste 48 Oeste 0 -- -- 79
2020-03-06 01:00:00 2.5 27 Noroeste 48 Oeste 0 -- -- 80
2020-03-06 00:00:00 2.8 33 Noroeste 53 Oeste 0.2 -- -- 81
2020-03-05 23:00:00 4.5 31 Oeste 46 Noroeste 0 -- -- 75
2020-03-05 22:00:00 4.5 24 Oeste 42 Oeste 0 -- -- 71
2020-03-05 21:00:00 4.7 29 Oeste 48 Oeste 0 -- -- 71
2020-03-05 20:00:00 4.9 38 Oeste 64 Oeste 0 -- -- 69
2020-03-05 19:00:00 5.3 36 Oeste 66 Oeste 0 -- -- 70
2020-03-05 18:00:00 6.6 51 Oeste 83 Oeste 0 -- -- 63
2020-03-05 17:00:00 7.4 49 Oeste 77 Oeste 0 -- -- 64
2020-03-05 16:00:00 6.9 42 Oeste 70 Oeste 0 -- -- 68
2020-03-05 15:00:00 7.4 42 Oeste 75 Oeste 0 -- -- 82
2020-03-05 14:00:00 8.6 35 Oeste 60 Oeste 0 -- -- 78
2020-03-05 13:00:00 8.9 32 Oeste 75 Oeste 0 -- -- 76
2020-03-05 12:00:00 7 28 Oeste 53 Oeste 0 -- -- 86
2020-03-05 11:00:00 6.7 24 Oeste 63 Oeste 0 -- -- 85
2020-03-05 10:00:00 6.2 31 Oeste 65 Oeste 0 -- -- 84
2020-03-05 09:00:00 6 38 Oeste 63 Oeste 0 -- -- 87
2020-03-05 08:00:00 6.2 37 Sudoeste 68 Sudoeste 0 -- -- 86
2020-03-05 07:00:00 5.8 20 Oeste 56 Oeste 0 -- -- 87
2020-03-05 06:00:00 6.1 23 Sudoeste 59 Sudoeste 0 -- -- 84
2020-03-05 05:00:00 6 5 Nordeste 22 Norte 0 -- -- 85
2020-03-05 04:00:00 5.6 6 Nordeste 22 Este 0 -- -- 86
2020-03-05 03:00:00 5.6 6 Oeste 18 Oeste 0 -- -- 83
2020-03-05 02:00:00 5.4 4 Este 15 Noroeste 0 -- -- 82
2020-03-05 01:00:00 6.1 6 Noroeste 24 Oeste 0 -- -- 79
2020-03-05 00:00:00 6.1 6 Noroeste 16 Oeste 0 -- -- 81